Time;durP1;ratioP1;P1;durP2;ratioP2;P2;SDS_P1;SDS_P2;PMS_P1;PMS_P2;Temp;Humidity;BMP_temperature;BMP_pressure;BME280_temperature;BME280_humidity;BME280_pressure;Samples;Min_cycle;Max_cycle;Signal;HPM_P1;HPM_P2
2022/05/16 00:00:14;;;;;;;13.00;4.70;;;16.30;99.90;;;;;;5037144;28;20452;-70
2022/05/16 00:02:40;;;;;;;11.30;4.68;;;16.20;99.90;;;;;;5054428;28;20401;-70
2022/05/16 00:05:07;;;;;;;13.50;5.22;;;16.20;99.90;;;;;;5054534;28;20048;-70
2022/05/16 00:07:36;;;;;;;13.10;5.30;;;16.20;99.90;;;;;;5054478;28;20048;-70
2022/05/16 00:10:02;;;;;;;13.70;5.47;;;16.20;99.90;;;;;;5054371;28;20489;-70
2022/05/16 00:12:28;;;;;;;11.80;4.70;;;16.30;99.90;;;;;;5036571;28;20045;-70
2022/05/16 00:14:54;;;;;;;17.77;5.30;;;16.30;99.90;;;;;;5036494;28;20135;-70
2022/05/16 00:17:19;;;;;;;9.82;4.95;;;16.30;99.90;;;;;;5054193;28;20044;-70
2022/05/16 00:19:45;;;;;;;14.48;5.65;;;16.30;99.90;;;;;;5054208;28;20045;-70
2022/05/16 00:22:11;;;;;;;12.50;4.68;;;16.20;99.90;;;;;;5053899;28;20067;-70
2022/05/16 00:24:44;;;;;;;14.23;4.95;;;16.10;99.90;;;;;;5054110;28;20045;-70
2022/05/16 00:27:10;;;;;;;11.27;4.15;;;16.10;99.90;;;;;;5036648;28;20055;-70
2022/05/16 00:29:37;;;;;;;13.98;5.30;;;16.00;99.90;;;;;;5036406;28;20057;-70
2022/05/16 00:32:03;;;;;;;12.38;4.70;;;16.00;99.90;;;;;;5053822;28;20417;-70
2022/05/16 00:34:29;;;;;;;11.93;5.20;;;16.00;99.90;;;;;;5053899;28;20079;-70
2022/05/16 00:36:55;;;;;;;10.55;5.13;;;15.90;99.90;;;;;;5053435;28;20068;-70
2022/05/16 00:39:21;;;;;;;11.52;4.80;;;15.90;99.90;;;;;;5053837;28;20045;-70
2022/05/16 00:41:48;;;;;;;9.73;4.60;;;15.90;99.90;;;;;;5053338;28;20132;-70
2022/05/16 00:44:15;;;;;;;15.85;4.82;;;15.90;99.90;;;;;;5053732;28;20144;-70
2022/05/16 00:46:40;;;;;;;14.30;5.57;;;15.90;99.90;;;;;;5036019;28;20044;-70
2022/05/16 00:49:16;;;;;;;11.30;4.75;;;16.00;99.90;;;;;;5053787;28;20118;-70
2022/05/16 00:52:23;;;;;;;8.32;4.53;;;16.00;99.90;;;;;;5053767;28;20045;-70
2022/05/16 00:54:55;;;;;;;12.95;4.80;;;15.90;99.90;;;;;;4972688;28;20130;-70
2022/05/16 00:57:25;;;;;;;11.38;4.75;;;15.80;99.90;;;;;;4972777;28;20082;-70
2022/05/16 01:00:20;;;;;;;10.55;4.45;;;15.80;99.90;;;;;;5015803;28;20467;-70
2022/05/16 01:05:35;;;;;;;8.15;4.50;;;15.80;99.90;;;;;;5053329;28;20072;-70
2022/05/16 01:08:05;;;;;;;8.70;4.22;;;15.80;99.90;;;;;;5053486;28;20041;-70
2022/05/16 01:10:32;;;;;;;10.73;4.82;;;15.80;99.90;;;;;;5036099;28;20135;-70
2022/05/16 01:12:58;;;;;;;18.63;4.90;;;15.80;99.90;;;;;;5053441;28;20060;-70
2022/05/16 01:15:24;;;;;;;6.50;3.90;;;15.70;99.90;;;;;;5053313;28;20405;-70
2022/05/16 01:17:49;;;;;;;13.07;4.30;;;15.80;99.90;;;;;;5035684;28;20049;-70
2022/05/16 01:20:16;;;;;;;9.70;3.78;;;15.70;99.90;;;;;;5035515;28;20075;-70
2022/05/16 01:22:45;;;;;;;8.50;4.05;;;15.80;99.90;;;;;;5053328;28;20057;-70
2022/05/16 01:25:19;;;;;;;8.05;3.83;;;15.60;99.90;;;;;;5035932;28;20037;-70
2022/05/16 01:27:50;;;;;;;8.48;4.32;;;15.60;99.90;;;;;;5053364;28;20049;-70
2022/05/16 01:30:21;;;;;;;9.65;4.40;;;15.60;99.90;;;;;;5053149;28;20155;-70
2022/05/16 01:32:46;;;;;;;13.23;4.65;;;15.50;99.90;;;;;;5053327;28;20059;-70
2022/05/16 01:35:16;;;;;;;12.48;4.53;;;15.50;99.90;;;;;;5053241;28;20049;-70
2022/05/16 01:40:26;;;;;;;8.02;4.10;;;15.40;99.90;;;;;;5053000;28;20056;-70
2022/05/16 01:42:52;;;;;;;10.95;4.38;;;15.40;99.90;;;;;;5052616;28;20052;-70
2022/05/16 01:45:17;;;;;;;11.10;4.30;;;15.40;99.90;;;;;;5035616;28;20076;-70
2022/05/16 01:47:43;;;;;;;10.63;3.67;;;15.50;99.90;;;;;;5038188;28;20120;-70
2022/05/16 01:50:09;;;;;;;9.00;4.00;;;15.50;99.90;;;;;;5039300;28;20045;-70
2022/05/16 01:52:35;;;;;;;10.80;4.00;;;15.50;99.90;;;;;;5057089;28;20051;-70
2022/05/16 01:55:00;;;;;;;11.38;4.15;;;15.40;99.90;;;;;;5039470;28;20497;-70
2022/05/16 01:57:26;;;;;;;7.28;3.75;;;15.40;99.90;;;;;;5056898;28;20481;-70
2022/05/16 01:59:52;;;;;;;7.60;3.47;;;15.30;99.90;;;;;;5056893;28;20128;-70
2022/05/16 02:02:17;;;;;;;8.15;3.88;;;15.30;99.90;;;;;;5056829;28;20127;-70
2022/05/16 02:04:43;;;;;;;10.73;4.00;;;15.20;99.90;;;;;;5022706;28;20053;-70
2022/05/16 02:07:09;;;;;;;5.70;3.25;;;15.30;99.90;;;;;;5056741;28;20052;-70
2022/05/16 02:09:34;;;;;;;7.25;3.15;;;15.10;99.90;;;;;;5056839;28;20045;-70
2022/05/16 02:12:00;;;;;;;7.82;3.97;;;15.10;99.90;;;;;;5005756;28;20129;-70
2022/05/16 02:14:25;;;;;;;14.50;3.78;;;15.10;99.90;;;;;;5056641;28;20095;-70
2022/05/16 02:16:51;;;;;;;8.45;3.63;;;15.10;99.90;;;;;;5039190;28;20057;-70
2022/05/16 02:19:17;;;;;;;7.13;3.03;;;15.00;99.90;;;;;;5039007;28;20494;-70
2022/05/16 02:24:39;;;;;;;7.60;3.50;;;14.90;99.90;;;;;;5056484;28;20052;-71
2022/05/16 02:27:09;;;;;;;10.05;4.10;;;14.90;99.90;;;;;;5040438;28;20496;-70
2022/05/16 02:29:34;;;;;;;7.60;3.10;;;14.90;99.90;;;;;;5038813;28;20060;-70
2022/05/16 02:32:05;;;;;;;5.78;2.42;;;15.00;99.90;;;;;;5056311;28;20037;-70
2022/05/16 02:34:31;;;;;;;7.78;2.67;;;15.00;99.90;;;;;;5056188;28;20489;-70
2022/05/16 02:36:58;;;;;;;6.25;2.85;;;15.00;99.90;;;;;;5038596;28;20474;-72
2022/05/16 02:39:24;;;;;;;8.30;3.17;;;15.00;99.90;;;;;;5055872;28;20056;-70
2022/05/16 02:41:49;;;;;;;6.70;2.58;;;15.00;99.90;;;;;;5055732;28;20043;-70
2022/05/16 02:44:16;;;;;;;6.38;3.03;;;15.10;99.90;;;;;;5056071;28;20059;-70
2022/05/16 02:46:42;;;;;;;5.97;2.50;;;14.90;99.90;;;;;;5056308;28;20051;-70
2022/05/16 02:49:08;;;;;;;6.75;2.70;;;15.00;99.90;;;;;;5056005;28;20095;-69
2022/05/16 02:51:34;;;;;;;5.18;2.28;;;15.00;99.90;;;;;;5055962;28;20447;-70
2022/05/16 02:54:00;;;;;;;4.05;2.53;;;15.00;99.90;;;;;;5038058;28;20045;-70
2022/05/16 02:56:26;;;;;;;5.78;2.53;;;15.00;99.90;;;;;;5056164;28;20045;-70
2022/05/16 02:58:52;;;;;;;5.45;2.30;;;15.00;99.90;;;;;;5055256;28;20068;-70
2022/05/16 03:01:18;;;;;;;6.80;2.40;;;15.00;99.90;;;;;;5055957;28;20041;-70
2022/05/16 03:03:43;;;;;;;5.03;2.03;;;14.90;99.90;;;;;;5055828;28;20056;-70
2022/05/16 03:06:10;;;;;;;6.65;2.55;;;15.00;99.90;;;;;;5037925;28;20049;-71
2022/05/16 03:08:37;;;;;;;6.57;2.13;;;14.90;99.90;;;;;;5055325;28;20060;-70
2022/05/16 03:11:03;;;;;;;5.03;2.08;;;14.90;99.90;;;;;;5055572;28;20128;-70
2022/05/16 03:13:31;;;;;;;5.78;2.15;;;14.80;99.90;;;;;;5037838;28;20059;-70
2022/05/16 03:15:58;;;;;;;6.68;2.38;;;14.80;99.90;;;;;;5055595;28;20053;-70
2022/05/16 03:18:24;;;;;;;5.25;2.10;;;14.90;99.90;;;;;;5055354;28;20053;-70
2022/05/16 03:20:51;;;;;;;5.13;1.73;;;14.80;99.90;;;;;;5055160;28;20053;-70
2022/05/16 03:23:17;;;;;;;8.40;1.92;;;14.70;99.90;;;;;;5055941;28;20067;-70
2022/05/16 03:25:42;;;;;;;6.90;2.22;;;14.70;99.90;;;;;;5055354;28;20481;-70
2022/05/16 03:28:08;;;;;;;6.53;2.17;;;14.70;99.90;;;;;;5055247;28;20049;-70
2022/05/16 03:30:35;;;;;;;4.18;1.73;;;14.70;99.90;;;;;;5055343;28;20040;-70
2022/05/16 03:33:01;;;;;;;7.60;1.83;;;14.70;99.90;;;;;;5055107;28;20390;-70
2022/05/16 03:35:26;;;;;;;3.50;1.73;;;14.80;99.90;;;;;;5055013;28;20094;-70
2022/05/16 03:37:52;;;;;;;6.68;1.95;;;14.70;99.80;;;;;;5054832;28;20052;-70
2022/05/16 03:43:02;;;;;;;5.93;1.67;;;14.70;99.90;;;;;;5054741;28;20056;-70
2022/05/16 03:45:28;;;;;;;4.90;1.98;;;14.80;99.80;;;;;;5054866;28;20045;-69
2022/05/16 03:47:53;;;;;;;5.75;1.77;;;14.70;99.90;;;;;;5054923;28;20417;-70
2022/05/16 03:50:19;;;;;;;4.32;1.70;;;14.70;99.90;;;;;;5054678;28;20409;-69
2022/05/16 03:52:45;;;;;;;5.28;1.60;;;14.70;99.90;;;;;;5054587;28;20473;-70
2022/05/16 03:55:15;;;;;;;5.25;2.05;;;14.70;99.90;;;;;;5055034;28;20055;-70
2022/05/16 03:57:41;;;;;;;4.85;1.73;;;14.60;99.80;;;;;;5054781;28;20183;-69
2022/05/16 04:00:09;;;;;;;5.10;1.58;;;14.60;99.90;;;;;;5054432;28;20048;-69
2022/05/16 04:02:40;;;;;;;8.35;1.70;;;14.70;99.70;;;;;;5054336;28;20489;-70
2022/05/16 04:05:08;;;;;;;8.18;2.15;;;14.50;99.80;;;;;;5054611;28;20060;-70
2022/05/16 04:07:35;;;;;;;5.38;1.73;;;14.40;99.90;;;;;;5054514;28;20049;-69
2022/05/16 04:10:01;;;;;;;4.50;1.83;;;14.50;99.90;;;;;;5053507;28;20099;-70
2022/05/16 04:12:27;;;;;;;5.47;1.75;;;14.70;99.90;;;;;;5053879;28;20136;-70
2022/05/16 04:14:53;;;;;;;10.70;2.15;;;14.70;99.90;;;;;;5054178;28;20056;-70
2022/05/16 04:17:19;;;;;;;5.22;1.70;;;14.70;99.80;;;;;;5054254;28;20497;-70
2022/05/16 04:19:45;;;;;;;6.20;1.80;;;14.70;99.90;;;;;;5054192;28;20047;-70
2022/05/16 04:22:12;;;;;;;3.13;1.50;;;14.60;99.80;;;;;;5052247;28;20056;-71
2022/05/16 04:24:39;;;;;;;5.43;2.08;;;14.70;99.90;;;;;;5052388;28;20569;-70
2022/05/16 04:27:05;;;;;;;8.43;1.60;;;14.80;99.80;;;;;;5054123;28;20037;-70
2022/05/16 04:29:31;;;;;;;4.03;1.58;;;14.90;99.80;;;;;;5036434;28;20527;-70
2022/05/16 04:31:57;;;;;;;4.43;1.63;;;14.90;99.90;;;;;;5053839;28;20041;-70
2022/05/16 04:34:22;;;;;;;5.65;1.88;;;14.90;99.70;;;;;;5036270;28;20048;-70
2022/05/16 04:36:48;;;;;;;4.50;1.67;;;15.00;99.70;;;;;;5036450;28;20088;-70
2022/05/16 04:39:14;;;;;;;4.43;1.70;;;15.10;99.60;;;;;;5054111;28;20448;-70
2022/05/16 04:44:23;;;;;;;7.20;1.83;;;15.00;99.90;;;;;;5053703;28;20589;-70
2022/05/16 04:46:49;;;;;;;8.05;1.90;;;15.00;99.90;;;;;;5036244;28;20124;-69
2022/05/16 04:49:15;;;;;;;5.07;1.50;;;15.00;99.80;;;;;;5053701;28;20051;-70
2022/05/16 04:51:40;;;;;;;5.35;1.80;;;15.00;99.80;;;;;;5054004;28;20041;-70
2022/05/16 04:54:06;;;;;;;3.35;1.63;;;15.10;99.80;;;;;;5053689;28;20052;-70
2022/05/16 04:56:33;;;;;;;4.70;1.88;;;15.10;99.70;;;;;;5053703;28;20048;-70
2022/05/16 04:59:00;;;;;;;6.22;1.85;;;15.10;99.60;;;;;;5053422;28;20085;-70
2022/05/16 05:01:25;;;;;;;7.18;1.85;;;15.00;99.70;;;;;;5053567;28;20081;-70
2022/05/16 05:03:51;;;;;;;7.90;2.05;;;15.00;99.90;;;;;;5036054;28;20465;-70
2022/05/16 05:06:17;;;;;;;5.75;1.85;;;15.00;99.80;;;;;;5053955;28;20045;-70
2022/05/16 05:08:44;;;;;;;7.78;2.33;;;15.00;99.60;;;;;;5053592;28;20132;-70
2022/05/16 05:16:38;;;;;;;5.18;1.85;;;15.00;99.80;;;;;;5053247;28;20503;-70
2022/05/16 05:19:04;;;;;;;8.75;1.95;;;15.10;99.80;;;;;;5035814;28;20091;-70
2022/05/16 05:21:30;;;;;;;6.07;2.25;;;15.10;99.80;;;;;;5052845;28;20096;-70
2022/05/16 05:23:56;;;;;;;4.63;2.20;;;15.10;99.90;;;;;;5053167;28;20063;-70
2022/05/16 05:26:22;;;;;;;5.00;2.20;;;15.30;99.80;;;;;;5053117;28;20049;-70
2022/05/16 05:28:48;;;;;;;4.47;2.05;;;15.50;99.90;;;;;;5053350;28;20106;-70
2022/05/16 05:31:16;;;;;;;6.97;2.00;;;15.50;99.70;;;;;;5053162;28;20202;-70
2022/05/16 05:33:42;;;;;;;4.78;2.10;;;15.60;99.90;;;;;;5053010;28;20378;-70
2022/05/16 05:36:09;;;;;;;4.93;2.05;;;15.70;99.70;;;;;;5053179;28;20049;-70
2022/05/16 05:38:39;;;;;;;5.47;2.20;;;15.80;99.60;;;;;;5053199;28;20045;-70
2022/05/16 05:41:06;;;;;;;6.32;2.22;;;15.90;99.60;;;;;;5052733;28;20049;-70
2022/05/16 05:43:32;;;;;;;7.45;2.67;;;15.80;99.80;;;;;;5053245;28;20465;-70
2022/05/16 05:45:58;;;;;;;8.77;2.42;;;15.70;99.80;;;;;;5053331;28;20127;-70
2022/05/16 05:48:24;;;;;;;6.38;1.70;;;15.80;99.80;;;;;;5053277;28;20052;-70
2022/05/16 05:50:49;;;;;;;9.93;2.80;;;15.90;99.90;;;;;;5053006;28;20076;-70
2022/05/16 05:53:15;;;;;;;5.70;2.13;;;15.90;99.70;;;;;;5052909;28;20099;-70
2022/05/16 05:55:41;;;;;;;7.03;2.42;;;15.90;99.80;;;;;;5053333;28;20045;-69
2022/05/16 05:58:07;;;;;;;10.32;2.50;;;16.00;99.90;;;;;;5053082;28;20085;-71
2022/05/16 06:00:32;;;;;;;4.63;2.28;;;15.90;99.80;;;;;;5053010;28;20049;-70
2022/05/16 06:03:00;;;;;;;11.27;2.50;;;16.00;99.80;;;;;;5035376;28;20500;-70
2022/05/16 06:05:27;;;;;;;8.32;2.67;;;16.10;99.90;;;;;;5052922;28;20053;-70
2022/05/16 06:07:53;;;;;;;4.68;2.28;;;16.20;99.80;;;;;;5052885;28;20491;-70
2022/05/16 06:10:19;;;;;;;6.93;2.60;;;16.30;99.90;;;;;;5052976;28;20094;-70
2022/05/16 06:12:45;;;;;;;8.52;2.75;;;16.30;99.70;;;;;;5052689;28;20037;-70
2022/05/16 06:15:13;;;;;;;6.93;2.30;;;16.40;99.80;;;;;;5053044;28;20045;-70
2022/05/16 06:17:39;;;;;;;5.82;2.63;;;16.50;99.70;;;;;;5052897;28;20123;-70
2022/05/16 06:20:07;;;;;;;6.95;2.70;;;16.50;99.60;;;;;;5018517;28;20120;-70
2022/05/16 06:22:37;;;;;;;6.38;2.72;;;16.40;99.70;;;;;;5052257;28;20132;-70
2022/05/16 06:27:54;;;;;;;7.57;2.40;;;16.40;99.60;;;;;;5060432;28;20119;-70
2022/05/16 06:30:20;;;;;;;10.43;2.95;;;16.40;99.50;;;;;;5061892;28;20492;-70
2022/05/16 06:32:48;;;;;;;7.88;2.50;;;16.40;99.60;;;;;;5059695;28;20405;-71
2022/05/16 06:35:14;;;;;;;6.70;2.70;;;16.40;99.60;;;;;;5061728;28;20392;-71
2022/05/16 06:37:40;;;;;;;9.63;2.63;;;16.50;99.80;;;;;;5064730;28;20045;-75
2022/05/16 06:40:06;;;;;;;10.13;2.40;;;16.70;99.80;;;;;;5027512;28;20131;-72
2022/05/16 06:42:32;;;;;;;9.85;2.65;;;16.90;99.70;;;;;;5070030;28;20231;-73
2022/05/16 06:44:57;;;;;;;6.90;2.80;;;17.00;99.60;;;;;;5046179;28;20088;-76
2022/05/16 06:47:24;;;;;;;11.38;2.70;;;17.10;99.50;;;;;;5064166;28;20052;-75
2022/05/16 06:49:51;;;;;;;6.53;2.05;;;17.30;99.60;;;;;;5062356;28;20119;-72
2022/05/16 06:52:18;;;;;;;7.57;2.70;;;17.50;99.50;;;;;;5064058;28;20040;-71
2022/05/16 06:54:44;;;;;;;5.43;2.65;;;17.70;99.60;;;;;;5048279;28;20049;-72
2022/05/16 06:57:10;;;;;;;9.18;2.50;;;17.70;99.50;;;;;;5066591;28;20051;-71
2022/05/16 06:59:36;;;;;;;9.30;3.35;;;17.80;99.30;;;;;;5073766;28;20049;-72
2022/05/16 07:02:03;;;;;;;10.82;2.80;;;17.90;99.40;;;;;;5075464;28;20083;-71
2022/05/16 07:04:29;;;;;;;7.50;2.30;;;17.90;99.20;;;;;;5070229;28;20436;-71
2022/05/16 07:06:55;;;;;;;9.57;2.58;;;18.00;99.50;;;;;;5055454;28;20077;-71
2022/05/16 07:09:20;;;;;;;9.77;3.15;;;18.10;99.00;;;;;;5055294;28;20059;-71
2022/05/16 07:11:46;;;;;;;8.52;2.78;;;18.10;99.20;;;;;;5054983;28;20048;-71
2022/05/16 07:14:12;;;;;;;9.10;2.95;;;18.40;99.30;;;;;;5055540;28;20045;-71
2022/05/16 07:16:38;;;;;;;9.68;2.90;;;18.50;99.10;;;;;;5055086;28;20049;-71
2022/05/16 07:19:04;;;;;;;15.70;3.13;;;18.50;99.10;;;;;;5037487;28;20044;-72
2022/05/16 07:21:29;;;;;;;10.02;2.92;;;18.50;98.90;;;;;;5060583;28;20060;-72
2022/05/16 07:23:55;;;;;;;9.43;2.63;;;18.70;98.70;;;;;;5057497;28;20052;-73
2022/05/16 07:29:05;;;;;;;11.40;2.90;;;19.10;98.70;;;;;;5065205;28;22554;-71
2022/05/16 07:31:31;;;;;;;12.00;2.60;;;19.20;98.90;;;;;;5062458;28;20060;-71
2022/05/16 07:33:58;;;;;;;9.52;2.50;;;19.00;98.70;;;;;;5042816;28;20043;-74
2022/05/16 07:36:24;;;;;;;12.73;2.70;;;19.10;98.60;;;;;;5065609;28;20052;-74
2022/05/16 07:38:50;;;;;;;9.75;2.88;;;19.00;98.40;;;;;;5074293;28;20050;-74
2022/05/16 07:41:16;;;;;;;14.23;2.97;;;19.00;98.50;;;;;;5077334;28;20546;-72
2022/05/16 07:43:42;;;;;;;7.50;2.65;;;19.10;98.60;;;;;;5075837;28;20097;-73
2022/05/16 07:46:08;;;;;;;14.27;2.78;;;19.30;98.70;;;;;;5057268;28;20052;-72
2022/05/16 07:48:34;;;;;;;7.60;3.00;;;19.30;98.40;;;;;;5070292;28;20045;-70
2022/05/16 07:51:00;;;;;;;8.05;2.75;;;19.40;98.20;;;;;;5073257;28;20507;-70
2022/05/16 07:53:34;;;;;;;11.93;3.15;;;19.30;98.50;;;;;;5074562;28;20231;-70
2022/05/16 07:56:00;;;;;;;11.73;2.90;;;19.50;98.30;;;;;;5074741;28;20424;-70
2022/05/16 07:58:26;;;;;;;8.98;2.63;;;19.50;98.50;;;;;;5074537;28;20052;-70
2022/05/16 08:00:53;;;;;;;8.07;2.60;;;19.60;98.60;;;;;;5074600;28;20040;-70
2022/05/16 08:03:21;;;;;;;9.23;2.40;;;19.60;98.30;;;;;;5074629;28;20044;-70
2022/05/16 08:05:46;;;;;;;7.78;2.60;;;19.70;98.60;;;;;;5074453;28;20129;-70
2022/05/16 08:10:59;;;;;;;12.55;2.85;;;19.90;98.30;;;;;;5074260;28;20040;-71
2022/05/16 08:13:26;;;;;;;9.02;2.28;;;20.30;98.40;;;;;;5074015;28;20048;-70
2022/05/16 08:15:52;;;;;;;8.18;2.63;;;20.40;98.20;;;;;;5074342;28;20044;-71
2022/05/16 08:18:18;;;;;;;8.80;2.20;;;20.40;98.00;;;;;;5074253;28;20044;-70
2022/05/16 08:20:46;;;;;;;11.20;2.40;;;20.50;98.20;;;;;;5056396;28;20423;-71
2022/05/16 08:23:15;;;;;;;9.60;2.67;;;20.70;98.10;;;;;;5074058;28;20053;-71
2022/05/16 08:25:43;;;;;;;13.07;2.53;;;20.90;98.10;;;;;;5074041;28;20090;-70
2022/05/16 08:28:09;;;;;;;7.60;2.55;;;21.00;97.90;;;;;;5074122;28;20044;-70
2022/05/16 08:30:35;;;;;;;10.02;2.38;;;21.10;97.80;;;;;;5074109;28;20366;-70
2022/05/16 08:33:01;;;;;;;7.07;2.50;;;21.10;98.00;;;;;;5074065;28;20045;-71
2022/05/16 08:35:27;;;;;;;7.82;2.28;;;21.30;97.80;;;;;;5073943;28;20054;-71
2022/05/16 08:40:43;;;;;;;12.23;2.30;;;21.50;97.80;;;;;;5073998;28;20147;-71
2022/05/16 08:43:16;;;;;;;8.18;2.20;;;21.60;97.90;;;;;;5073763;28;20087;-69
2022/05/16 08:45:50;;;;;;;10.48;2.47;;;21.70;98.00;;;;;;5073942;28;20052;-70
2022/05/16 08:48:26;;;;;;;10.88;2.67;;;21.90;97.70;;;;;;5073682;28;20088;-70
2022/05/16 08:50:54;;;;;;;8.50;2.95;;;21.90;97.80;;;;;;5056459;28;20056;-71
2022/05/16 08:53:35;;;;;;;10.05;2.15;;;22.20;97.50;;;;;;5056071;28;20083;-70
2022/05/16 08:56:05;;;;;;;12.90;2.38;;;22.30;97.80;;;;;;5073322;28;20558;-70
2022/05/16 08:58:37;;;;;;;10.43;2.92;;;22.50;97.50;;;;;;5039167;28;20052;-71
2022/05/16 09:01:07;;;;;;;9.00;2.92;;;22.50;97.70;;;;;;5073410;28;20045;-70
2022/05/16 09:04:03;;;;;;;6.70;2.20;;;22.70;97.30;;;;;;5073666;28;20055;-70
2022/05/16 09:06:40;;;;;;;10.48;2.38;;;23.00;97.40;;;;;;5073748;28;20139;-70
2022/05/16 09:09:13;;;;;;;11.05;2.25;;;23.20;97.50;;;;;;5073560;28;20131;-70
2022/05/16 09:11:54;;;;;;;9.77;2.58;;;23.40;97.40;;;;;;5028639;28;20044;-70
2022/05/16 09:15:01;;;;;;;8.73;2.20;;;23.40;97.00;;;;;;5053427;28;20102;-70
2022/05/16 09:17:57;;;;;;;6.00;1.98;;;23.50;97.00;;;;;;4983072;28;20053;-71
2022/05/16 09:20:44;;;;;;;8.20;2.20;;;23.40;97.10;;;;;;4977924;28;20483;-70
2022/05/16 09:23:20;;;;;;;10.20;2.50;;;23.60;97.20;;;;;;5047753;28;20459;-70
2022/05/16 09:26:04;;;;;;;;;;;23.70;97.30;;;;;;5063025;28;20048;-71
2022/05/16 09:28:35;;;;;;;9.95;2.42;;;24.00;97.50;;;;;;5042386;28;20334;-73
2022/05/16 09:31:30;;;;;;;8.88;2.45;;;24.20;97.80;;;;;;5058824;28;20056;-73
2022/05/16 09:33:58;;;;;;;11.13;2.22;;;24.10;96.90;;;;;;5052080;28;20080;-72
2022/05/16 09:36:36;;;;;;;7.38;2.38;;;24.10;97.30;;;;;;5052775;28;20051;-72
2022/05/16 09:39:03;;;;;;;11.50;2.55;;;24.20;97.30;;;;;;5052999;28;20053;-73
2022/05/16 09:41:35;;;;;;;12.70;2.47;;;24.30;97.00;;;;;;5051921;28;20850;-73
2022/05/16 09:44:10;;;;;;;11.18;2.67;;;24.30;97.50;;;;;;5052694;28;20052;-72
2022/05/16 09:46:40;;;;;;;8.90;2.15;;;24.50;97.00;;;;;;5061312;28;20132;-71
2022/05/16 09:49:18;;;;;;;11.63;2.15;;;24.50;96.70;;;;;;5053002;28;20126;-82
2022/05/16 09:51:54;;;;;;;12.32;2.78;;;24.30;96.90;;;;;;5019078;28;20455;-72
2022/05/16 09:54:31;;;;;;;7.32;2.40;;;24.30;97.10;;;;;;5052700;28;20045;-71
2022/05/16 09:57:04;;;;;;;12.00;2.80;;;24.60;97.00;;;;;;5059209;28;20052;-72
2022/05/16 09:59:34;;;;;;;7.97;2.53;;;24.60;96.70;;;;;;5060427;28;20105;-76
2022/05/16 10:02:29;;;;;;;13.43;2.40;;;24.70;96.80;;;;;;5056290;28;20040;-72
2022/05/16 10:05:20;;;;;;;8.95;2.88;;;24.80;96.40;;;;;;5034651;28;20110;-70
2022/05/16 10:07:49;;;;;;;10.57;2.80;;;24.80;96.50;;;;;;5034972;28;20228;-73
2022/05/16 10:10:38;;;;;;;11.48;2.15;;;24.80;96.60;;;;;;5056426;28;20107;-72
2022/05/16 10:13:04;;;;;;;7.72;2.50;;;24.80;96.40;;;;;;5056256;28;20053;-70
2022/05/16 10:15:31;;;;;;;4.68;2.38;;;24.90;96.60;;;;;;5056621;28;20059;-70
2022/05/16 10:17:59;;;;;;;8.40;2.30;;;25.40;96.50;;;;;;5056499;28;20045;-71
2022/05/16 10:20:30;;;;;;;7.82;2.22;;;25.60;96.30;;;;;;5056344;28;20033;-71
2022/05/16 10:23:03;;;;;;;6.57;2.42;;;26.00;96.10;;;;;;5056295;28;20139;-70
2022/05/16 10:25:42;;;;;;;9.57;2.45;;;26.40;96.20;;;;;;5056293;28;20056;-71
2022/05/16 10:28:13;;;;;;;9.60;2.20;;;26.70;96.10;;;;;;5056609;28;20102;-70
2022/05/16 10:33:29;;;;;;;9.70;2.28;;;27.00;95.90;;;;;;5056159;28;20103;-72
2022/05/16 10:36:28;;;;;;;8.35;2.50;;;26.80;95.70;;;;;;5058623;28;20045;-70
2022/05/16 10:39:06;;;;;;;7.90;2.33;;;26.40;95.90;;;;;;5075995;28;20049;-72
2022/05/16 10:41:40;;;;;;;7.80;2.65;;;26.80;96.00;;;;;;5075517;28;20045;-70
2022/05/16 10:44:17;;;;;;;8.93;2.22;;;26.70;96.10;;;;;;5075977;28;20052;-71
2022/05/16 10:46:49;;;;;;;10.57;2.30;;;27.00;95.90;;;;;;5076066;28;20053;-71
2022/05/16 10:49:20;;;;;;;9.75;2.33;;;27.30;96.00;;;;;;5056860;28;20576;-70
2022/05/16 10:52:01;;;;;;;5.50;1.63;;;27.40;95.70;;;;;;5055504;28;20138;-70
2022/05/16 10:54:29;;;;;;;6.30;2.25;;;27.70;95.80;;;;;;5055885;28;20053;-71
2022/05/16 10:56:58;;;;;;;8.57;2.08;;;27.90;96.10;;;;;;5055528;28;20128;-71
2022/05/16 10:59:46;;;;;;;8.07;2.35;;;27.90;96.30;;;;;;5055534;28;20135;-71
2022/05/16 11:02:30;;;;;;;7.75;2.15;;;27.90;95.20;;;;;;5055610;28;20493;-71
2022/05/16 11:05:00;;;;;;;10.52;2.28;;;27.80;95.50;;;;;;5055864;28;20120;-71
2022/05/16 11:07:36;;;;;;;10.77;2.40;;;27.90;95.60;;;;;;5055007;28;20040;-71
2022/05/16 11:10:10;;;;;;;;;;;28.00;95.40;;;;;;5056072;28;20063;-72
2022/05/16 11:13:07;;;;;;;6.35;2.08;;;28.00;95.50;;;;;;5043429;28;19946;-70
2022/05/16 11:15:38;;;;;;;10.32;2.50;;;27.70;94.60;;;;;;5053374;28;20057;-70
2022/05/16 11:18:27;;;;;;;8.13;2.40;;;27.30;94.60;;;;;;5074986;28;20040;-71
2022/05/16 11:21:25;;;;;;;6.82;2.20;;;27.10;95.10;;;;;;5077530;28;20040;-70
2022/05/16 11:24:18;;;;;;;8.77;2.63;;;26.80;95.10;;;;;;5055103;28;20135;-70
2022/05/16 11:26:52;;;;;;;4.93;1.95;;;26.80;95.10;;;;;;5060291;28;20119;-72
2022/05/16 11:29:44;;;;;;;7.55;2.55;;;26.50;95.30;;;;;;5045264;28;20053;-74
2022/05/16 11:32:30;;;;;;;11.35;2.40;;;26.30;95.00;;;;;;5058615;28;20053;-71
2022/05/16 11:35:24;;;;;;;14.05;2.35;;;26.20;95.40;;;;;;5036899;28;20061;-73
2022/05/16 11:38:17;;;;;;;7.90;2.45;;;26.10;97.20;;;;;;5054646;28;20489;-71
2022/05/16 11:41:07;;;;;;;8.52;2.25;;;26.00;96.50;;;;;;5054663;28;20503;-71
2022/05/16 11:43:42;;;;;;;6.80;2.45;;;25.80;97.00;;;;;;5054182;28;20109;-70
2022/05/16 11:46:37;;;;;;;5.83;2.13;;;25.80;97.10;;;;;;5037390;28;20559;-72
2022/05/16 11:49:26;;;;;;;5.13;2.17;;;25.80;97.30;;;;;;5020934;28;20060;-72
2022/05/16 11:52:30;;;;;;;8.43;2.40;;;25.70;97.80;;;;;;5054683;28;20110;-71
2022/05/16 12:01:39;;;;;;;12.52;2.30;;;25.50;96.90;;;;;;5054480;28;20056;-71
2022/05/16 12:04:15;;;;;;;8.05;2.53;;;25.70;96.30;;;;;;5054574;28;20053;-71
2022/05/16 12:06:45;;;;;;;8.25;2.60;;;25.50;96.00;;;;;;5037059;28;20066;-71
2022/05/16 12:09:19;;;;;;;8.23;2.45;;;25.50;96.20;;;;;;5054412;28;20049;-71
2022/05/16 12:12:08;;;;;;;8.30;2.30;;;25.50;96.60;;;;;;5054125;28;20041;-71
2022/05/16 12:14:40;;;;;;;5.90;2.13;;;25.60;96.70;;;;;;5036911;28;20044;-71
2022/05/16 12:17:08;;;;;;;7.55;2.60;;;25.70;96.90;;;;;;5036622;28;20540;-69
2022/05/16 12:19:39;;;;;;;7.18;2.67;;;25.80;97.00;;;;;;5054325;28;20552;-70
2022/05/16 12:22:06;;;;;;;7.78;2.63;;;25.80;96.80;;;;;;5053939;28;20505;-68
2022/05/16 12:24:52;;;;;;;12.15;3.20;;;25.70;97.30;;;;;;5054267;28;20434;-70
2022/05/16 12:27:28;;;;;;;14.10;2.65;;;25.70;97.20;;;;;;5036373;28;20485;-70
2022/05/16 12:29:57;;;;;;;10.75;3.92;;;25.60;97.70;;;;;;5054508;28;20126;-71
2022/05/16 12:32:42;;;;;;;7.45;2.80;;;25.60;97.60;;;;;;5053265;28;20051;-70
2022/05/16 12:35:13;;;;;;;7.40;2.80;;;25.50;97.40;;;;;;5053877;28;20071;-69
2022/05/16 12:37:39;;;;;;;14.95;3.28;;;25.30;97.30;;;;;;5053794;28;20045;-70
2022/05/16 12:40:17;;;;;;;5.65;2.60;;;25.00;97.40;;;;;;5053617;28;20432;-70
2022/05/16 12:43:06;;;;;;;13.80;3.28;;;25.00;97.20;;;;;;5053502;28;20079;-70
2022/05/16 12:45:57;;;;;;;11.73;2.97;;;25.00;97.40;;;;;;5036304;28;20509;-70
2022/05/16 12:48:46;;;;;;;12.02;2.70;;;25.00;97.80;;;;;;5036688;28;20061;-70
2022/05/16 12:51:33;;;;;;;13.48;3.25;;;25.10;97.70;;;;;;5053925;28;20520;-70
2022/05/16 12:54:11;;;;;;;12.20;3.30;;;25.20;98.10;;;;;;5053730;28;20087;-71
2022/05/16 12:56:54;;;;;;;9.85;2.80;;;25.30;98.40;;;;;;5019618;28;20092;-72
2022/05/16 12:59:55;;;;;;;8.85;2.90;;;25.40;98.20;;;;;;5053715;28;20040;-70
2022/05/16 13:02:38;;;;;;;10.07;3.20;;;25.50;98.40;;;;;;5049007;28;20057;-72
2022/05/16 13:05:28;;;;;;;14.57;3.42;;;25.40;98.40;;;;;;5053872;28;20048;-72
2022/05/16 13:08:09;;;;;;;11.68;3.13;;;25.50;97.90;;;;;;5053723;28;20068;-72
2022/05/16 13:11:05;;;;;;;9.32;3.15;;;25.40;97.80;;;;;;5035843;28;20056;-72
2022/05/16 13:14:08;;;;;;;10.85;3.55;;;25.50;97.70;;;;;;5035526;28;20507;-72
2022/05/16 13:16:53;;;;;;;14.30;3.15;;;25.70;97.60;;;;;;5053506;28;20048;-72
2022/05/16 13:19:19;;;;;;;7.72;2.97;;;25.60;97.70;;;;;;5053116;28;20596;-72
2022/05/16 13:22:09;;;;;;;10.50;3.70;;;25.80;98.00;;;;;;5052993;28;20086;-81
2022/05/16 13:24:36;;;;;;;8.90;3.53;;;25.90;98.20;;;;;;5035970;28;20057;-81
2022/05/16 13:29:49;;;;;;;12.48;3.97;;;25.40;97.90;;;;;;5035466;28;20045;-81
2022/05/16 13:32:18;;;;;;;12.95;4.00;;;25.30;98.00;;;;;;5035541;28;20148;-80
2022/05/16 13:34:51;;;;;;;13.55;4.18;;;25.20;97.80;;;;;;5019177;28;20143;-80
2022/05/16 13:37:30;;;;;;;10.95;3.67;;;25.10;98.40;;;;;;5035395;28;20140;-80
2022/05/16 13:40:06;;;;;;;10.75;4.15;;;25.00;98.20;;;;;;5035257;28;20045;-80
2022/05/16 13:42:35;;;;;;;12.90;4.10;;;25.00;98.60;;;;;;5035923;28;20508;-80
2022/05/16 13:45:03;;;;;;;13.80;4.35;;;24.80;98.40;;;;;;5039844;28;20041;-87